sensor_id;sensor_type;location;lat;lon;timestamp;pressure;altitude;pressure_sealevel;temperature
41940;BMP180;23057;48.554;14.454;2023-04-03T00:01:52;94099.00;;;8.40
41940;BMP180;23057;48.554;14.454;2023-04-03T00:04:44;94101.00;;;8.40
41940;BMP180;23057;48.554;14.454;2023-04-03T00:07:27;94108.00;;;8.40
41940;BMP180;23057;48.554;14.454;2023-04-03T00:10:10;94097.00;;;8.40
41940;BMP180;23057;48.554;14.454;2023-04-03T00:12:53;94104.00;;;8.40
41940;BMP180;23057;48.554;14.454;2023-04-03T00:15:40;94097.00;;;8.40
41940;BMP180;23057;48.554;14.454;2023-04-03T00:18:22;94112.00;;;8.40
41940;BMP180;23057;48.554;14.454;2023-04-03T00:21:06;94110.00;;;8.40
41940;BMP180;23057;48.554;14.454;2023-04-03T00:23:49;94102.00;;;8.40
41940;BMP180;23057;48.554;14.454;2023-04-03T00:26:35;94099.00;;;8.40
41940;BMP180;23057;48.554;14.454;2023-04-03T00:29:21;94104.00;;;8.40
41940;BMP180;23057;48.554;14.454;2023-04-03T00:32:07;94104.00;;;8.30
41940;BMP180;23057;48.554;14.454;2023-04-03T00:34:53;94100.00;;;8.30
41940;BMP180;23057;48.554;14.454;2023-04-03T00:37:38;94101.00;;;8.40
41940;BMP180;23057;48.554;14.454;2023-04-03T00:40:24;94103.00;;;8.40
41940;BMP180;23057;48.554;14.454;2023-04-03T00:43:24;94106.00;;;8.40
41940;BMP180;23057;48.554;14.454;2023-04-03T00:46:04;94104.00;;;8.40
41940;BMP180;23057;48.554;14.454;2023-04-03T00:48:48;94104.00;;;8.40
41940;BMP180;23057;48.554;14.454;2023-04-03T00:51:23;94105.00;;;8.40
41940;BMP180;23057;48.554;14.454;2023-04-03T00:53:58;94108.00;;;8.40
41940;BMP180;23057;48.554;14.454;2023-04-03T00:56:33;94103.00;;;8.40
41940;BMP180;23057;48.554;14.454;2023-04-03T00:59:08;94107.00;;;8.30
41940;BMP180;23057;48.554;14.454;2023-04-03T01:01:45;94101.00;;;8.30
41940;BMP180;23057;48.554;14.454;2023-04-03T01:04:45;94101.00;;;8.30
41940;BMP180;23057;48.554;14.454;2023-04-03T01:07:20;94103.00;;;8.30
41940;BMP180;23057;48.554;14.454;2023-04-03T01:09:57;94095.00;;;8.30
41940;BMP180;23057;48.554;14.454;2023-04-03T01:12:34;94105.00;;;8.40
41940;BMP180;23057;48.554;14.454;2023-04-03T01:15:44;94103.00;;;8.30
41940;BMP180;23057;48.554;14.454;2023-04-03T01:18:09;94104.00;;;8.30
41940;BMP180;23057;48.554;14.454;2023-04-03T01:20:58;94100.00;;;8.30
41940;BMP180;23057;48.554;14.454;2023-04-03T01:26:30;94100.00;;;8.30
41940;BMP180;23057;48.554;14.454;2023-04-03T01:29:02;94109.00;;;8.30
41940;BMP180;23057;48.554;14.454;2023-04-03T01:32:05;94100.00;;;8.30
41940;BMP180;23057;48.554;14.454;2023-04-03T01:34:36;94097.00;;;8.30
41940;BMP180;23057;48.554;14.454;2023-04-03T01:37:07;94104.00;;;8.30
41940;BMP180;23057;48.554;14.454;2023-04-03T01:39:38;94101.00;;;8.30
41940;BMP180;23057;48.554;14.454;2023-04-03T01:42:09;94101.00;;;8.30
41940;BMP180;23057;48.554;14.454;2023-04-03T01:44:40;94105.00;;;8.30
41940;BMP180;23057;48.554;14.454;2023-04-03T01:47:11;94107.00;;;8.30
41940;BMP180;23057;48.554;14.454;2023-04-03T01:49:42;94116.00;;;8.30
41940;BMP180;23057;48.554;14.454;2023-04-03T01:52:13;94115.00;;;8.30
41940;BMP180;23057;48.554;14.454;2023-04-03T01:54:43;94108.00;;;8.30
41940;BMP180;23057;48.554;14.454;2023-04-03T01:57:14;94111.00;;;8.30
41940;BMP180;23057;48.554;14.454;2023-04-03T01:59:45;94112.00;;;8.30
41940;BMP180;23057;48.554;14.454;2023-04-03T02:02:17;94119.00;;;8.30
41940;BMP180;23057;48.554;14.454;2023-04-03T02:04:47;94116.00;;;8.30
41940;BMP180;23057;48.554;14.454;2023-04-03T02:07:18;94111.00;;;8.30
41940;BMP180;23057;48.554;14.454;2023-04-03T02:09:49;94117.00;;;8.30
41940;BMP180;23057;48.554;14.454;2023-04-03T02:12:20;94115.00;;;8.30
41940;BMP180;23057;48.554;14.454;2023-04-03T02:14:50;94111.00;;;8.20
41940;BMP180;23057;48.554;14.454;2023-04-03T02:17:21;94113.00;;;8.20
41940;BMP180;23057;48.554;14.454;2023-04-03T02:19:52;94113.00;;;8.20
41940;BMP180;23057;48.554;14.454;2023-04-03T02:22:23;94109.00;;;8.20
41940;BMP180;23057;48.554;14.454;2023-04-03T02:24:53;94112.00;;;8.10
41940;BMP180;23057;48.554;14.454;2023-04-03T02:27:24;94115.00;;;8.10
41940;BMP180;23057;48.554;14.454;2023-04-03T02:29:55;94113.00;;;8.10
41940;BMP180;23057;48.554;14.454;2023-04-03T02:32:26;94118.00;;;8.00
41940;BMP180;23057;48.554;14.454;2023-04-03T02:34:57;94108.00;;;8.00
41940;BMP180;23057;48.554;14.454;2023-04-03T02:37:28;94107.00;;;8.00
41940;BMP180;23057;48.554;14.454;2023-04-03T02:39:58;94103.00;;;8.00
41940;BMP180;23057;48.554;14.454;2023-04-03T02:42:29;94099.00;;;7.90
41940;BMP180;23057;48.554;14.454;2023-04-03T02:45:00;94104.00;;;7.90
41940;BMP180;23057;48.554;14.454;2023-04-03T02:47:31;94101.00;;;7.90
41940;BMP180;23057;48.554;14.454;2023-04-03T02:50:02;94092.00;;;7.90
41940;BMP180;23057;48.554;14.454;2023-04-03T02:52:33;94108.00;;;7.90
41940;BMP180;23057;48.554;14.454;2023-04-03T02:55:05;94111.00;;;7.90
41940;BMP180;23057;48.554;14.454;2023-04-03T02:57:36;94105.00;;;7.90
41940;BMP180;23057;48.554;14.454;2023-04-03T03:00:07;94104.00;;;7.90
41940;BMP180;23057;48.554;14.454;2023-04-03T03:02:40;94102.00;;;7.90
41940;BMP180;23057;48.554;14.454;2023-04-03T03:05:11;94103.00;;;8.00
41940;BMP180;23057;48.554;14.454;2023-04-03T03:07:41;94106.00;;;8.00
41940;BMP180;23057;48.554;14.454;2023-04-03T03:10:12;94108.00;;;8.00
41940;BMP180;23057;48.554;14.454;2023-04-03T03:12:43;94108.00;;;8.00
41940;BMP180;23057;48.554;14.454;2023-04-03T03:15:14;94105.00;;;8.10
41940;BMP180;23057;48.554;14.454;2023-04-03T03:17:46;94104.00;;;8.10
41940;BMP180;23057;48.554;14.454;2023-04-03T03:20:17;94114.00;;;8.10
41940;BMP180;23057;48.554;14.454;2023-04-03T03:22:48;94117.00;;;8.10
41940;BMP180;23057;48.554;14.454;2023-04-03T03:25:18;94106.00;;;8.10
41940;BMP180;23057;48.554;14.454;2023-04-03T03:27:49;94106.00;;;8.10
41940;BMP180;23057;48.554;14.454;2023-04-03T03:30:20;94108.00;;;8.10
41940;BMP180;23057;48.554;14.454;2023-04-03T03:32:51;94112.00;;;8.10
41940;BMP180;23057;48.554;14.454;2023-04-03T03:35:22;94103.00;;;8.10
41940;BMP180;23057;48.554;14.454;2023-04-03T03:37:52;94106.00;;;8.00
41940;BMP180;23057;48.554;14.454;2023-04-03T03:40:23;94113.00;;;8.00
41940;BMP180;23057;48.554;14.454;2023-04-03T03:42:54;94100.00;;;8.00
41940;BMP180;23057;48.554;14.454;2023-04-03T03:45:25;94112.00;;;8.00
41940;BMP180;23057;48.554;14.454;2023-04-03T03:47:55;94111.00;;;8.00
41940;BMP180;23057;48.554;14.454;2023-04-03T03:50:26;94119.00;;;8.10
41940;BMP180;23057;48.554;14.454;2023-04-03T03:52:57;94114.00;;;8.10
41940;BMP180;23057;48.554;14.454;2023-04-03T03:55:28;94109.00;;;8.10
41940;BMP180;23057;48.554;14.454;2023-04-03T03:57:59;94112.00;;;8.10
41940;BMP180;23057;48.554;14.454;2023-04-03T04:00:31;94097.00;;;8.10
41940;BMP180;23057;48.554;14.454;2023-04-03T04:03:02;94117.00;;;8.10
41940;BMP180;23057;48.554;14.454;2023-04-03T04:05:33;94112.00;;;8.00
41940;BMP180;23057;48.554;14.454;2023-04-03T04:08:03;94104.00;;;8.00
41940;BMP180;23057;48.554;14.454;2023-04-03T04:10:35;94115.00;;;8.00
41940;BMP180;23057;48.554;14.454;2023-04-03T04:13:07;94111.00;;;8.00
41940;BMP180;23057;48.554;14.454;2023-04-03T04:15:38;94113.00;;;8.00
41940;BMP180;23057;48.554;14.454;2023-04-03T04:18:09;94119.00;;;8.00
41940;BMP180;23057;48.554;14.454;2023-04-03T04:20:40;94105.00;;;8.00
41940;BMP180;23057;48.554;14.454;2023-04-03T04:23:11;94105.00;;;8.00
41940;BMP180;23057;48.554;14.454;2023-04-03T04:25:44;94108.00;;;8.00
41940;BMP180;23057;48.554;14.454;2023-04-03T04:28:16;94112.00;;;8.00
41940;BMP180;23057;48.554;14.454;2023-04-03T04:30:47;94114.00;;;8.00
41940;BMP180;23057;48.554;14.454;2023-04-03T04:33:18;94112.00;;;8.00
41940;BMP180;23057;48.554;14.454;2023-04-03T04:35:48;94118.00;;;8.00
41940;BMP180;23057;48.554;14.454;2023-04-03T04:38:20;94120.00;;;8.00
41940;BMP180;23057;48.554;14.454;2023-04-03T04:40:51;94121.00;;;8.00
41940;BMP180;23057;48.554;14.454;2023-04-03T04:43:21;94115.00;;;8.00
41940;BMP180;23057;48.554;14.454;2023-04-03T04:46:09;94116.00;;;8.00
41940;BMP180;23057;48.554;14.454;2023-04-03T04:48:42;94120.00;;;8.00
41940;BMP180;23057;48.554;14.454;2023-04-03T04:51:14;94118.00;;;8.00
41940;BMP180;23057;48.554;14.454;2023-04-03T04:53:45;94120.00;;;8.00
41940;BMP180;23057;48.554;14.454;2023-04-03T04:56:16;94119.00;;;8.00
41940;BMP180;23057;48.554;14.454;2023-04-03T04:58:46;94125.00;;;8.00
41940;BMP180;23057;48.554;14.454;2023-04-03T05:01:17;94127.00;;;8.00
41940;BMP180;23057;48.554;14.454;2023-04-03T05:03:49;94120.00;;;8.00
41940;BMP180;23057;48.554;14.454;2023-04-03T05:06:20;94116.00;;;8.00
41940;BMP180;23057;48.554;14.454;2023-04-03T05:08:50;94122.00;;;8.00
41940;BMP180;23057;48.554;14.454;2023-04-03T05:11:21;94124.00;;;8.00
41940;BMP180;23057;48.554;14.454;2023-04-03T05:13:52;94129.00;;;8.00
41940;BMP180;23057;48.554;14.454;2023-04-03T05:16:23;94129.00;;;8.00
41940;BMP180;23057;48.554;14.454;2023-04-03T05:18:54;94131.00;;;8.00
41940;BMP180;23057;48.554;14.454;2023-04-03T05:21:24;94130.00;;;7.90
41940;BMP180;23057;48.554;14.454;2023-04-03T05:23:56;94124.00;;;7.90
41940;BMP180;23057;48.554;14.454;2023-04-03T05:26:27;94127.00;;;8.00
41940;BMP180;23057;48.554;14.454;2023-04-03T05:28:58;94134.00;;;8.00
41940;BMP180;23057;48.554;14.454;2023-04-03T05:31:29;94130.00;;;8.00
41940;BMP180;23057;48.554;14.454;2023-04-03T05:33:59;94130.00;;;8.00
41940;BMP180;23057;48.554;14.454;2023-04-03T05:36:30;94138.00;;;8.00
41940;BMP180;23057;48.554;14.454;2023-04-03T05:39:02;94129.00;;;7.90
41940;BMP180;23057;48.554;14.454;2023-04-03T05:41:33;94136.00;;;7.90
41940;BMP180;23057;48.554;14.454;2023-04-03T05:44:03;94131.00;;;7.80
41940;BMP180;23057;48.554;14.454;2023-04-03T05:46:34;94132.00;;;7.80
41940;BMP180;23057;48.554;14.454;2023-04-03T05:49:05;94135.00;;;7.70
41940;BMP180;23057;48.554;14.454;2023-04-03T05:51:37;94134.00;;;7.70
41940;BMP180;23057;48.554;14.454;2023-04-03T05:54:13;94137.00;;;7.70
41940;BMP180;23057;48.554;14.454;2023-04-03T05:56:49;94142.00;;;7.60
41940;BMP180;23057;48.554;14.454;2023-04-03T05:59:21;94151.00;;;7.70
41940;BMP180;23057;48.554;14.454;2023-04-03T06:01:52;94146.00;;;7.70
41940;BMP180;23057;48.554;14.454;2023-04-03T06:04:22;94153.00;;;7.70
41940;BMP180;23057;48.554;14.454;2023-04-03T06:06:55;94145.00;;;7.70
41940;BMP180;23057;48.554;14.454;2023-04-03T06:09:28;94146.00;;;7.70
41940;BMP180;23057;48.554;14.454;2023-04-03T06:11:59;94145.00;;;7.80
41940;BMP180;23057;48.554;14.454;2023-04-03T06:14:32;94143.00;;;7.80
41940;BMP180;23057;48.554;14.454;2023-04-03T06:17:03;94145.00;;;7.80
41940;BMP180;23057;48.554;14.454;2023-04-03T06:19:35;94150.00;;;7.80
41940;BMP180;23057;48.554;14.454;2023-04-03T06:22:06;94158.00;;;7.80
41940;BMP180;23057;48.554;14.454;2023-04-03T06:24:37;94153.00;;;7.70
41940;BMP180;23057;48.554;14.454;2023-04-03T06:27:09;94161.00;;;7.60
41940;BMP180;23057;48.554;14.454;2023-04-03T06:29:41;94167.00;;;7.40
41940;BMP180;23057;48.554;14.454;2023-04-03T06:32:12;94164.00;;;7.30
41940;BMP180;23057;48.554;14.454;2023-04-03T06:34:43;94170.00;;;7.30
41940;BMP180;23057;48.554;14.454;2023-04-03T06:37:18;94173.00;;;7.20
41940;BMP180;23057;48.554;14.454;2023-04-03T06:39:51;94176.00;;;7.10
41940;BMP180;23057;48.554;14.454;2023-04-03T06:42:23;94181.00;;;7.10
41940;BMP180;23057;48.554;14.454;2023-04-03T06:44:53;94167.00;;;7.00
41940;BMP180;23057;48.554;14.454;2023-04-03T06:47:24;94172.00;;;6.90
41940;BMP180;23057;48.554;14.454;2023-04-03T06:49:55;94173.00;;;6.80
41940;BMP180;23057;48.554;14.454;2023-04-03T06:52:26;94181.00;;;6.70
41940;BMP180;23057;48.554;14.454;2023-04-03T06:54:57;94184.00;;;6.70
41940;BMP180;23057;48.554;14.454;2023-04-03T06:57:29;94189.00;;;6.70
41940;BMP180;23057;48.554;14.454;2023-04-03T07:00:01;94192.00;;;6.70
41940;BMP180;23057;48.554;14.454;2023-04-03T07:02:31;94183.00;;;6.60
41940;BMP180;23057;48.554;14.454;2023-04-03T07:05:03;94189.00;;;6.60
41940;BMP180;23057;48.554;14.454;2023-04-03T07:07:34;94193.00;;;6.60
41940;BMP180;23057;48.554;14.454;2023-04-03T07:10:06;94199.00;;;6.60
41940;BMP180;23057;48.554;14.454;2023-04-03T07:12:38;94204.00;;;6.70
41940;BMP180;23057;48.554;14.454;2023-04-03T07:15:09;94200.00;;;6.70
41940;BMP180;23057;48.554;14.454;2023-04-03T07:17:40;94204.00;;;6.70
41940;BMP180;23057;48.554;14.454;2023-04-03T07:20:11;94207.00;;;6.70
41940;BMP180;23057;48.554;14.454;2023-04-03T07:22:41;94201.00;;;6.70
41940;BMP180;23057;48.554;14.454;2023-04-03T07:25:12;94211.00;;;6.70
41940;BMP180;23057;48.554;14.454;2023-04-03T07:27:43;94214.00;;;6.70
41940;BMP180;23057;48.554;14.454;2023-04-03T07:30:14;94215.00;;;6.70
41940;BMP180;23057;48.554;14.454;2023-04-03T07:32:45;94216.00;;;6.70
41940;BMP180;23057;48.554;14.454;2023-04-03T07:35:16;94216.00;;;6.70
41940;BMP180;23057;48.554;14.454;2023-04-03T07:37:47;94214.00;;;6.70
41940;BMP180;23057;48.554;14.454;2023-04-03T07:40:18;94222.00;;;6.80
41940;BMP180;23057;48.554;14.454;2023-04-03T07:42:49;94219.00;;;6.80
41940;BMP180;23057;48.554;14.454;2023-04-03T07:45:20;94218.00;;;6.80
41940;BMP180;23057;48.554;14.454;2023-04-03T07:47:53;94226.00;;;6.80
41940;BMP180;23057;48.554;14.454;2023-04-03T07:50:24;94236.00;;;6.90
41940;BMP180;23057;48.554;14.454;2023-04-03T07:52:55;94227.00;;;7.00
41940;BMP180;23057;48.554;14.454;2023-04-03T07:55:27;94234.00;;;7.10
41940;BMP180;23057;48.554;14.454;2023-04-03T07:57:59;94232.00;;;7.20
41940;BMP180;23057;48.554;14.454;2023-04-03T08:00:29;94242.00;;;7.20
41940;BMP180;23057;48.554;14.454;2023-04-03T08:03:00;94233.00;;;7.30
41940;BMP180;23057;48.554;14.454;2023-04-03T08:05:31;94227.00;;;7.20
41940;BMP180;23057;48.554;14.454;2023-04-03T08:08:08;94239.00;;;7.20
41940;BMP180;23057;48.554;14.454;2023-04-03T08:10:40;94234.00;;;7.20
41940;BMP180;23057;48.554;14.454;2023-04-03T08:13:11;94232.00;;;7.20
41940;BMP180;23057;48.554;14.454;2023-04-03T08:15:41;94244.00;;;7.20
41940;BMP180;23057;48.554;14.454;2023-04-03T08:18:13;94243.00;;;7.10
41940;BMP180;23057;48.554;14.454;2023-04-03T08:20:45;94221.00;;;7.10
41940;BMP180;23057;48.554;14.454;2023-04-03T08:23:15;94232.00;;;7.10
41940;BMP180;23057;48.554;14.454;2023-04-03T08:25:47;94248.00;;;7.10
41940;BMP180;23057;48.554;14.454;2023-04-03T08:28:17;94242.00;;;7.10
41940;BMP180;23057;48.554;14.454;2023-04-03T08:30:48;94251.00;;;7.20
41940;BMP180;23057;48.554;14.454;2023-04-03T08:33:19;94243.00;;;7.30
41940;BMP180;23057;48.554;14.454;2023-04-03T08:35:50;94244.00;;;7.30
41940;BMP180;23057;48.554;14.454;2023-04-03T08:38:21;94250.00;;;7.50
41940;BMP180;23057;48.554;14.454;2023-04-03T08:44:25;94253.00;;;7.50
41940;BMP180;23057;48.554;14.454;2023-04-03T08:50:28;94261.00;;;7.90
41940;BMP180;23057;48.554;14.454;2023-04-03T08:53:13;94257.00;;;8.20
41940;BMP180;23057;48.554;14.454;2023-04-03T08:56:03;94268.00;;;8.40
41940;BMP180;23057;48.554;14.454;2023-04-03T08:58:47;94252.00;;;8.70
41940;BMP180;23057;48.554;14.454;2023-04-03T09:01:27;94268.00;;;8.60
41940;BMP180;23057;48.554;14.454;2023-04-03T09:04:12;94256.00;;;8.70
41940;BMP180;23057;48.554;14.454;2023-04-03T09:06:52;94256.00;;;8.80
41940;BMP180;23057;48.554;14.454;2023-04-03T09:09:35;94264.00;;;8.80
41940;BMP180;23057;48.554;14.454;2023-04-03T09:12:19;94264.00;;;8.80
41940;BMP180;23057;48.554;14.454;2023-04-03T09:15:20;94269.00;;;8.70
41940;BMP180;23057;48.554;14.454;2023-04-03T09:18:00;94279.00;;;8.60
41940;BMP180;23057;48.554;14.454;2023-04-03T09:21:13;94285.00;;;8.60
41940;BMP180;23057;48.554;14.454;2023-04-03T09:23:51;94272.00;;;8.50
41940;BMP180;23057;48.554;14.454;2023-04-03T09:26:29;94271.00;;;8.50
41940;BMP180;23057;48.554;14.454;2023-04-03T09:29:08;94276.00;;;8.50
41940;BMP180;23057;48.554;14.454;2023-04-03T09:31:42;94279.00;;;8.60
41940;BMP180;23057;48.554;14.454;2023-04-03T09:34:24;94277.00;;;8.60
41940;BMP180;23057;48.554;14.454;2023-04-03T09:37:05;94272.00;;;8.60
41940;BMP180;23057;48.554;14.454;2023-04-03T09:39:53;94293.00;;;8.40
41940;BMP180;23057;48.554;14.454;2023-04-03T09:42:25;94285.00;;;8.30
41940;BMP180;23057;48.554;14.454;2023-04-03T09:45:04;94287.00;;;8.20
41940;BMP180;23057;48.554;14.454;2023-04-03T09:47:36;94281.00;;;8.20
41940;BMP180;23057;48.554;14.454;2023-04-03T09:52:47;94287.00;;;8.20
41940;BMP180;23057;48.554;14.454;2023-04-03T09:55:21;94298.00;;;8.10
41940;BMP180;23057;48.554;14.454;2023-04-03T09:58:01;94297.00;;;8.10
41940;BMP180;23057;48.554;14.454;2023-04-03T10:00:36;94298.00;;;8.20
41940;BMP180;23057;48.554;14.454;2023-04-03T10:03:28;94308.00;;;8.10
41940;BMP180;23057;48.554;14.454;2023-04-03T10:06:00;94296.00;;;8.10
41940;BMP180;23057;48.554;14.454;2023-04-03T10:08:33;94296.00;;;8.20
41940;BMP180;23057;48.554;14.454;2023-04-03T10:11:15;94296.00;;;8.20
41940;BMP180;23057;48.554;14.454;2023-04-03T10:13:53;94301.00;;;8.10
41940;BMP180;23057;48.554;14.454;2023-04-03T10:16:32;94305.00;;;8.10
41940;BMP180;23057;48.554;14.454;2023-04-03T10:19:35;94307.00;;;7.90
41940;BMP180;23057;48.554;14.454;2023-04-03T10:25:36;94299.00;;;7.80
41940;BMP180;23057;48.554;14.454;2023-04-03T10:31:38;94314.00;;;7.60
41940;BMP180;23057;48.554;14.454;2023-04-03T10:34:25;94316.00;;;7.60
41940;BMP180;23057;48.554;14.454;2023-04-03T10:37:18;94301.00;;;7.80
41940;BMP180;23057;48.554;14.454;2023-04-03T10:40:01;94311.00;;;7.90
41940;BMP180;23057;48.554;14.454;2023-04-03T10:42:46;94305.00;;;8.00
41940;BMP180;23057;48.554;14.454;2023-04-03T10:45:41;94297.00;;;8.20
41940;BMP180;23057;48.554;14.454;2023-04-03T10:55:14;94305.00;;;8.50
41940;BMP180;23057;48.554;14.454;2023-04-03T10:57:48;94311.00;;;8.50
41940;BMP180;23057;48.554;14.454;2023-04-03T11:00:22;94308.00;;;8.60
41940;BMP180;23057;48.554;14.454;2023-04-03T11:03:11;94300.00;;;8.50
41940;BMP180;23057;48.554;14.454;2023-04-03T11:05:49;94297.00;;;8.40
41940;BMP180;23057;48.554;14.454;2023-04-03T11:08:33;94292.00;;;8.30
41940;BMP180;23057;48.554;14.454;2023-04-03T11:11:14;94300.00;;;8.20
41940;BMP180;23057;48.554;14.454;2023-04-03T11:14:24;94304.00;;;8.10
41940;BMP180;23057;48.554;14.454;2023-04-03T11:23:01;94302.00;;;8.20
41940;BMP180;23057;48.554;14.454;2023-04-03T11:25:36;94299.00;;;8.40
41940;BMP180;23057;48.554;14.454;2023-04-03T11:28:13;94296.00;;;8.70
41940;BMP180;23057;48.554;14.454;2023-04-03T11:30:49;94290.00;;;8.80
41940;BMP180;23057;48.554;14.454;2023-04-03T11:36:50;94283.00;;;9.10
41940;BMP180;23057;48.554;14.454;2023-04-03T11:39:29;94280.00;;;9.30
41940;BMP180;23057;48.554;14.454;2023-04-03T11:42:24;94275.00;;;9.40
41940;BMP180;23057;48.554;14.454;2023-04-03T11:45:24;94276.00;;;9.50
41940;BMP180;23057;48.554;14.454;2023-04-03T11:47:58;94268.00;;;9.50
41940;BMP180;23057;48.554;14.454;2023-04-03T11:50:51;94266.00;;;9.50
41940;BMP180;23057;48.554;14.454;2023-04-03T12:01:45;94270.00;;;9.10
41940;BMP180;23057;48.554;14.454;2023-04-03T12:04:20;94279.00;;;9.00
41940;BMP180;23057;48.554;14.454;2023-04-03T12:07:18;94270.00;;;8.80
41940;BMP180;23057;48.554;14.454;2023-04-03T12:12:27;94274.00;;;8.90
41940;BMP180;23057;48.554;14.454;2023-04-03T12:15:19;94258.00;;;9.10
41940;BMP180;23057;48.554;14.454;2023-04-03T12:17:53;94248.00;;;9.30
41940;BMP180;23057;48.554;14.454;2023-04-03T12:23:36;94255.00;;;9.10
41940;BMP180;23057;48.554;14.454;2023-04-03T12:26:35;94248.00;;;9.00
41940;BMP180;23057;48.554;14.454;2023-04-03T12:35:51;94255.00;;;9.00
41940;BMP180;23057;48.554;14.454;2023-04-03T12:42:32;94266.00;;;8.90
41940;BMP180;23057;48.554;14.454;2023-04-03T12:45:21;94267.00;;;8.80
41940;BMP180;23057;48.554;14.454;2023-04-03T12:47:56;94271.00;;;8.80
41940;BMP180;23057;48.554;14.454;2023-04-03T12:50:29;94257.00;;;8.70
41940;BMP180;23057;48.554;14.454;2023-04-03T12:53:24;94258.00;;;8.60
41940;BMP180;23057;48.554;14.454;2023-04-03T12:56:18;94260.00;;;8.40
41940;BMP180;23057;48.554;14.454;2023-04-03T12:59:24;94250.00;;;8.60
41940;BMP180;23057;48.554;14.454;2023-04-03T13:02:00;94254.00;;;8.90
41940;BMP180;23057;48.554;14.454;2023-04-03T13:04:31;94231.00;;;9.10
41940;BMP180;23057;48.554;14.454;2023-04-03T13:07:02;94247.00;;;9.30
41940;BMP180;23057;48.554;14.454;2023-04-03T13:09:33;94247.00;;;9.20
41940;BMP180;23057;48.554;14.454;2023-04-03T13:12:12;94242.00;;;9.10
41940;BMP180;23057;48.554;14.454;2023-04-03T13:14:58;94234.00;;;8.80
41940;BMP180;23057;48.554;14.454;2023-04-03T13:17:31;94243.00;;;8.80
41940;BMP180;23057;48.554;14.454;2023-04-03T13:20:20;94231.00;;;8.70
41940;BMP180;23057;48.554;14.454;2023-04-03T13:23:27;94228.00;;;8.60
41940;BMP180;23057;48.554;14.454;2023-04-03T13:25:51;94236.00;;;8.60
41940;BMP180;23057;48.554;14.454;2023-04-03T13:28:23;94225.00;;;8.70
41940;BMP180;23057;48.554;14.454;2023-04-03T13:31:22;94231.00;;;8.60
41940;BMP180;23057;48.554;14.454;2023-04-03T13:34:05;94239.00;;;8.60
41940;BMP180;23057;48.554;14.454;2023-04-03T13:39:30;94239.00;;;8.40
41940;BMP180;23057;48.554;14.454;2023-04-03T13:42:23;94238.00;;;8.30
41940;BMP180;23057;48.554;14.454;2023-04-03T13:45:22;94236.00;;;8.40
41940;BMP180;23057;48.554;14.454;2023-04-03T13:48:18;94208.00;;;8.50
41940;BMP180;23057;48.554;14.454;2023-04-03T13:51:02;94230.00;;;8.50
41940;BMP180;23057;48.554;14.454;2023-04-03T13:53:57;94221.00;;;8.60
41940;BMP180;23057;48.554;14.454;2023-04-03T13:56:43;94223.00;;;8.80
41940;BMP180;23057;48.554;14.454;2023-04-03T14:07:16;94228.00;;;9.20
41940;BMP180;23057;48.554;14.454;2023-04-03T14:09:50;94210.00;;;9.20
41940;BMP180;23057;48.554;14.454;2023-04-03T14:12:33;94215.00;;;9.10
41940;BMP180;23057;48.554;14.454;2023-04-03T14:15:19;94215.00;;;9.10
41940;BMP180;23057;48.554;14.454;2023-04-03T14:17:54;94214.00;;;9.00
41940;BMP180;23057;48.554;14.454;2023-04-03T14:20:26;94212.00;;;9.20
41940;BMP180;23057;48.554;14.454;2023-04-03T14:22:57;94210.00;;;9.20
41940;BMP180;23057;48.554;14.454;2023-04-03T14:25:29;94208.00;;;9.20
41940;BMP180;23057;48.554;14.454;2023-04-03T14:28:00;94215.00;;;9.00
41940;BMP180;23057;48.554;14.454;2023-04-03T14:30:32;94221.00;;;8.70
41940;BMP180;23057;48.554;14.454;2023-04-03T14:33:03;94218.00;;;8.40
41940;BMP180;23057;48.554;14.454;2023-04-03T14:35:34;94215.00;;;8.40
41940;BMP180;23057;48.554;14.454;2023-04-03T14:38:12;94217.00;;;8.40
41940;BMP180;23057;48.554;14.454;2023-04-03T14:40:52;94226.00;;;8.40
41940;BMP180;23057;48.554;14.454;2023-04-03T14:43:24;94225.00;;;8.40
41940;BMP180;23057;48.554;14.454;2023-04-03T14:45:55;94215.00;;;8.40
41940;BMP180;23057;48.554;14.454;2023-04-03T14:48:28;94225.00;;;8.40
41940;BMP180;23057;48.554;14.454;2023-04-03T14:51:00;94228.00;;;8.50
41940;BMP180;23057;48.554;14.454;2023-04-03T14:53:31;94224.00;;;8.50
41940;BMP180;23057;48.554;14.454;2023-04-03T14:56:10;94224.00;;;8.40
41940;BMP180;23057;48.554;14.454;2023-04-03T14:59:00;94242.00;;;8.20
41940;BMP180;23057;48.554;14.454;2023-04-03T15:01:31;94238.00;;;8.10
41940;BMP180;23057;48.554;14.454;2023-04-03T15:04:10;94249.00;;;8.00
41940;BMP180;23057;48.554;14.454;2023-04-03T15:06:44;94241.00;;;7.80
41940;BMP180;23057;48.554;14.454;2023-04-03T15:09:22;94245.00;;;7.70
41940;BMP180;23057;48.554;14.454;2023-04-03T15:11:55;94238.00;;;7.60
41940;BMP180;23057;48.554;14.454;2023-04-03T15:14:25;94250.00;;;7.60
41940;BMP180;23057;48.554;14.454;2023-04-03T15:16:56;94233.00;;;7.50
41940;BMP180;23057;48.554;14.454;2023-04-03T15:19:27;94234.00;;;7.60
41940;BMP180;23057;48.554;14.454;2023-04-03T15:21:58;94235.00;;;7.70
41940;BMP180;23057;48.554;14.454;2023-04-03T15:24:29;94249.00;;;7.80
41940;BMP180;23057;48.554;14.454;2023-04-03T15:27:00;94235.00;;;7.90
41940;BMP180;23057;48.554;14.454;2023-04-03T15:29:31;94243.00;;;7.90
41940;BMP180;23057;48.554;14.454;2023-04-03T15:32:03;94233.00;;;8.00
41940;BMP180;23057;48.554;14.454;2023-04-03T15:34:34;94243.00;;;8.10
41940;BMP180;23057;48.554;14.454;2023-04-03T15:37:06;94247.00;;;8.10
41940;BMP180;23057;48.554;14.454;2023-04-03T15:39:36;94234.00;;;8.20
41940;BMP180;23057;48.554;14.454;2023-04-03T15:42:07;94242.00;;;8.20
41940;BMP180;23057;48.554;14.454;2023-04-03T15:44:38;94247.00;;;8.10
41940;BMP180;23057;48.554;14.454;2023-04-03T15:47:11;94249.00;;;8.00
41940;BMP180;23057;48.554;14.454;2023-04-03T15:49:42;94244.00;;;7.90
41940;BMP180;23057;48.554;14.454;2023-04-03T15:52:13;94236.00;;;7.90
41940;BMP180;23057;48.554;14.454;2023-04-03T15:54:43;94238.00;;;7.90
41940;BMP180;23057;48.554;14.454;2023-04-03T15:57:14;94233.00;;;8.00
41940;BMP180;23057;48.554;14.454;2023-04-03T15:59:45;94230.00;;;8.00
41940;BMP180;23057;48.554;14.454;2023-04-03T16:02:16;94231.00;;;8.00
41940;BMP180;23057;48.554;14.454;2023-04-03T16:04:47;94233.00;;;8.00
41940;BMP180;23057;48.554;14.454;2023-04-03T16:07:17;94235.00;;;8.00
41940;BMP180;23057;48.554;14.454;2023-04-03T16:09:48;94234.00;;;8.10